Brant — 5BBK2 — position and weather

sailwx.info

Track history (hours):
 
Tides and Currents Weather Stations Pressure Air Temp Water Temp Dewpoint Dewpoint Depression Visibility Wind Speed Wind Dir Waves Ship Positions

Brant

Last reported at 2015-Mar-14 21:31 UTC. Time now 2015-May-04 02:58 UTC.
Position N 36°19' W 026°15'.
Warning: this ship's position is 50 days out of date.

Length 185 m; draft 10 m.

Type: Cargo ship. MMSI: 212372000.

Date/timePositionNaut miles runAvg speedWind from/ knotsBaromVisibWave heightAir tempDewpointWater temp
2015-Mar-14 21:31N 36°19' W 026°15'1010.8
2015-Mar-14 20:34N 36°22' W 026°02'1110.7
2015-Mar-14 19:33N 36°25' W 025°50'1110.9
2015-Mar-14 18:34N 36°28' W 025°37'1111.1
2015-Mar-14 17:34N 36°31' W 025°23'1111.2
2015-Mar-14 16:33N 36°34' W 025°10'1111.2
2015-Mar-14 15:33N 36°37' W 024°57'1111.2
2015-Mar-14 14:34N 36°42' W 024°44'1211.7
2015-Mar-14 13:33N 36°50' W 024°33'1211.6
2015-Mar-14 12:34N 36°57' W 024°22'1211.7
2015-Mar-14 11:33N 37°05' W 024°11'1211.9
2015-Mar-14 10:34N 37°13' W 024°00'1211.9
2015-Mar-14 09:34N 37°21' W 023°49'1212.2
2015-Mar-14 08:33N 37°29' W 023°38'3912.3
2015-Mar-14 05:21N 37°55' W 023°00'  
2015-Mar-09 19:29N 50°34' E 000°20'1413.1
2015-Mar-09 18:27N 50°38' E 000°40'1213.0
2015-Mar-09 17:33N 50°45' E 000°54'1412.2
2015-Mar-09 16:27N 50°54' E 001°10'1010.8
2015-Mar-09 15:32N 51°01' E 001°21'9 9.0
2015-Mar-09 14:33N 51°07' E 001°32'9 8.8
2015-Mar-09 13:33N 51°12' E 001°43'1010.4
2015-Mar-09 12:33N 51°21' E 001°52'1313.0
2015-Mar-09 11:34N 51°32' E 002°04'1914.4
2015-Mar-09 10:16N 51°45' E 002°24'6912.0
2015-Mar-09 04:33N 52°48' E 003°09'11611.6
2015-Mar-08 18:33N 54°28' E 004°50'1211.6
2015-Mar-08 17:33N 54°38' E 005°01'1211.9
2015-Mar-08 16:33N 54°48' E 005°12'19410.7
2015-Mar-07 22:25N 57°24' E 008°37'71 9.0
2015-Mar-07 14:33N 57°49' E 010°42'7 6.5
2015-Mar-07 13:33N 57°42' E 010°42'3 0.8
2015-Mar-07 09:31N 57°40' E 010°37'0 0.0
2015-Mar-07 06:13N 57°40' E 010°37'4 6.3
2015-Mar-07 05:33N 57°40' E 010°45'9 9.5
2015-Mar-07 04:33N 57°39' E 011°03'1111.0
2015-Mar-07 03:33N 57°33' E 011°18'1111.2
2015-Mar-07 02:33N 57°23' E 011°30'1111.4
2015-Mar-07 01:33N 57°12' E 011°37'1211.8
2015-Mar-07 00:33N 57°01' E 011°44'1111.3
2015-Mar-06 23:33N 56°51' E 011°51'10 9.9
2015-Mar-06 22:33N 56°41' E 011°50'12410.3
2015-Mar-06 10:33N 54°40' E 010°58'1111.3
2015-Mar-06 09:33N 54°35' E 011°15'1111.4
2015-Mar-06 08:33N 54°30' E 011°33'1211.6
2015-Mar-06 07:33N 54°26' E 011°52'1111.2
2015-Mar-06 06:33N 54°27' E 012°11'1111.3
2015-Mar-06 05:33N 54°38' E 012°19'1111.3
2015-Mar-06 04:33N 54°45' E 012°35'1111.4
2015-Mar-06 03:33N 54°49' E 012°52'1211.7
2015-Mar-06 02:31N 54°53' E 013°12'1211.4
2015-Mar-06 01:29N 54°57' E 013°31'1111.5
2015-Mar-06 00:33N 55°01' E 013°49'1211.3
2015-Mar-05 23:27N 55°07' E 014°09'1111.9
2015-Mar-05 22:33N 55°15' E 014°20'1211.8
2015-Mar-05 21:32N 55°25' E 014°33'1111.2
2015-Mar-05 20:33N 55°30' E 014°49'  
Track history (hours):
 
Tides and Currents Weather Stations Pressure Air Temp Water Temp Dewpoint Dewpoint Depression Visibility Wind Speed Wind Dir Waves Ship Positions

Brant

Last reported at 2015-Mar-14 21:31 UTC. Time now 2015-May-04 02:58 UTC.
Position N 36°19' W 026°15'.
Warning: this ship's position is 50 days out of date.

Length 185 m; draft 10 m.

Type: Cargo ship. MMSI: 212372000.

Date/timePositionNaut miles runAvg speedWind from/ knotsBaromVisibWave heightAir tempDewpointWater temp
2015-Mar-14 21:31N 36°19' W 026°15'1010.8
2015-Mar-14 20:34N 36°22' W 026°02'1110.7
2015-Mar-14 19:33N 36°25' W 025°50'1110.9
2015-Mar-14 18:34N 36°28' W 025°37'1111.1
2015-Mar-14 17:34N 36°31' W 025°23'1111.2
2015-Mar-14 16:33N 36°34' W 025°10'1111.2
2015-Mar-14 15:33N 36°37' W 024°57'1111.2
2015-Mar-14 14:34N 36°42' W 024°44'1211.7
2015-Mar-14 13:33N 36°50' W 024°33'1211.6
2015-Mar-14 12:34N 36°57' W 024°22'1211.7
2015-Mar-14 11:33N 37°05' W 024°11'1211.9
2015-Mar-14 10:34N 37°13' W 024°00'1211.9
2015-Mar-14 09:34N 37°21' W 023°49'1212.2
2015-Mar-14 08:33N 37°29' W 023°38'3912.3
2015-Mar-14 05:21N 37°55' W 023°00'  
2015-Mar-09 19:29N 50°34' E 000°20'1413.1
2015-Mar-09 18:27N 50°38' E 000°40'1213.0
2015-Mar-09 17:33N 50°45' E 000°54'1412.2
2015-Mar-09 16:27N 50°54' E 001°10'1010.8
2015-Mar-09 15:32N 51°01' E 001°21'9 9.0
2015-Mar-09 14:33N 51°07' E 001°32'9 8.8
2015-Mar-09 13:33N 51°12' E 001°43'1010.4
2015-Mar-09 12:33N 51°21' E 001°52'1313.0
2015-Mar-09 11:34N 51°32' E 002°04'1914.4
2015-Mar-09 10:16N 51°45' E 002°24'6912.0
2015-Mar-09 04:33N 52°48' E 003°09'11611.6
2015-Mar-08 18:33N 54°28' E 004°50'1211.6
2015-Mar-08 17:33N 54°38' E 005°01'1211.9
2015-Mar-08 16:33N 54°48' E 005°12'19410.7
2015-Mar-07 22:25N 57°24' E 008°37'71 9.0
2015-Mar-07 14:33N 57°49' E 010°42'7 6.5
2015-Mar-07 13:33N 57°42' E 010°42'3 0.8
2015-Mar-07 09:31N 57°40' E 010°37'0 0.0
2015-Mar-07 06:13N 57°40' E 010°37'4 6.3
2015-Mar-07 05:33N 57°40' E 010°45'9 9.5
2015-Mar-07 04:33N 57°39' E 011°03'1111.0
2015-Mar-07 03:33N 57°33' E 011°18'1111.2
2015-Mar-07 02:33N 57°23' E 011°30'1111.4
2015-Mar-07 01:33N 57°12' E 011°37'1211.8
2015-Mar-07 00:33N 57°01' E 011°44'1111.3
2015-Mar-06 23:33N 56°51' E 011°51'10 9.9
2015-Mar-06 22:33N 56°41' E 011°50'12410.3
2015-Mar-06 10:33N 54°40' E 010°58'1111.3
2015-Mar-06 09:33N 54°35' E 011°15'1111.4
2015-Mar-06 08:33N 54°30' E 011°33'1211.6
2015-Mar-06 07:33N 54°26' E 011°52'1111.2
2015-Mar-06 06:33N 54°27' E 012°11'1111.3
2015-Mar-06 05:33N 54°38' E 012°19'1111.3
2015-Mar-06 04:33N 54°45' E 012°35'1111.4
2015-Mar-06 03:33N 54°49' E 012°52'1211.7
2015-Mar-06 02:31N 54°53' E 013°12'1211.4
2015-Mar-06 01:29N 54°57' E 013°31'1111.5
2015-Mar-06 00:33N 55°01' E 013°49'1211.3
2015-Mar-05 23:27N 55°07' E 014°09'1111.9
2015-Mar-05 22:33N 55°15' E 014°20'1211.8
2015-Mar-05 21:32N 55°25' E 014°33'1111.2
2015-Mar-05 20:33N 55°30' E 014°49'  

Dump ship's entire track history